Time;durP1;ratioP1;P1;durP2;ratioP2;P2;SDS_P1;SDS_P2;PMS_P1;PMS_P2;Temp;Humidity;BMP_temperature;BMP_pressure;BME280_temperature;BME280_humidity;BME280_pressure;Samples;Min_cycle;Max_cycle;Signal;HPM_P1;HPM_P2
2022/04/04 00:00:09;;;;;;;9.02;8.13;;;1.90;99.10;;;0.93;100.00;101012.41;4987749;28;20047;-74
2022/04/04 00:02:37;;;;;;;10.25;8.45;;;1.90;99.00;;;0.84;100.00;101024.28;4987489;28;20121;-75
2022/04/04 00:05:05;;;;;;;10.45;8.38;;;1.80;99.20;;;0.84;100.00;101019.09;4987631;28;20051;-76
2022/04/04 00:07:31;;;;;;;9.75;8.23;;;1.60;99.20;;;0.84;100.00;101016.50;4989405;28;20074;-76
2022/04/04 00:09:58;;;;;;;9.02;7.57;;;1.70;99.30;;;0.78;100.00;101018.94;4990116;28;20511;-75
2022/04/04 00:12:25;;;;;;;10.60;8.35;;;1.90;99.40;;;0.75;100.00;101017.97;4998468;28;20507;-76
2022/04/04 00:14:52;;;;;;;10.43;7.82;;;3.00;99.70;;;0.74;100.00;101016.22;5003707;28;20049;-77
2022/04/04 00:17:19;;;;;;;9.65;7.95;;;1.70;99.50;;;0.71;100.00;101006.66;4990009;28;20042;-76
2022/04/04 00:19:46;;;;;;;10.60;8.38;;;2.30;99.60;;;0.71;100.00;101014.44;5006948;28;20526;-76
2022/04/04 00:22:14;;;;;;;12.13;8.30;;;1.50;99.60;;;0.73;100.00;101002.41;5005639;28;20056;-76
2022/04/04 00:24:41;;;;;;;9.75;7.28;;;1.50;99.40;;;0.70;100.00;101008.38;4988843;28;20124;-77
2022/04/04 00:27:08;;;;;;;11.75;8.52;;;2.70;99.60;;;0.72;100.00;101004.94;4987522;28;20054;-76
2022/04/04 00:29:35;;;;;;;9.82;8.25;;;1.50;99.50;;;0.69;100.00;101004.03;4970761;28;20540;-75
2022/04/04 00:32:02;;;;;;;12.52;8.50;;;1.60;99.40;;;0.61;100.00;101010.69;5004120;28;20054;-77
2022/04/04 00:34:29;;;;;;;10.10;8.13;;;1.70;99.50;;;0.62;100.00;101007.28;5005807;28;20050;-75
2022/04/04 00:36:56;;;;;;;11.10;8.45;;;1.60;99.70;;;0.61;100.00;101008.09;5006028;28;20043;-77
2022/04/04 00:39:26;;;;;;;12.30;8.18;;;1.60;99.60;;;0.54;100.00;101011.38;4986705;28;20042;-76
2022/04/04 00:41:53;;;;;;;10.38;7.70;;;1.50;99.70;;;0.55;100.00;101007.94;5003167;28;20046;-76
2022/04/04 00:44:20;;;;;;;12.10;8.73;;;1.40;99.60;;;0.49;100.00;101002.63;5004873;28;20073;-76
2022/04/04 00:46:47;;;;;;;11.63;8.95;;;1.60;99.90;;;0.44;100.00;101007.66;4990549;28;20057;-76
2022/04/04 00:49:14;;;;;;;11.25;8.65;;;1.40;99.90;;;0.42;100.00;101002.44;5005062;28;20054;-74
2022/04/04 00:51:41;;;;;;;10.23;8.68;;;1.40;99.80;;;0.44;100.00;100994.72;5002838;28;20147;-77
2022/04/04 00:54:08;;;;;;;8.40;7.07;;;1.30;99.90;;;0.41;100.00;101000.69;5002160;28;20046;-76
2022/04/04 00:56:38;;;;;;;12.70;7.68;;;1.50;99.80;;;0.31;100.00;101001.25;5002505;28;20072;-76
2022/04/04 00:59:07;;;;;;;10.88;7.80;;;1.40;99.90;;;0.30;100.00;100993.44;5004095;28;20046;-76
2022/04/04 01:01:35;;;;;;;10.05;8.80;;;1.40;99.90;;;0.28;100.00;100998.56;5003672;28;20109;-77
2022/04/04 01:04:02;;;;;;;9.85;8.43;;;2.60;99.90;;;0.28;100.00;100994.28;5022982;28;20050;-77
2022/04/04 01:06:29;;;;;;;11.45;8.15;;;1.50;99.90;;;0.25;100.00;100991.63;5025802;28;20050;-76
2022/04/04 01:08:56;;;;;;;9.43;7.47;;;1.20;99.90;;;0.27;100.00;100982.19;5008849;28;20156;-77
2022/04/04 01:11:23;;;;;;;9.27;8.10;;;1.10;99.90;;;0.18;100.00;100981.91;5008020;28;20042;-77
2022/04/04 01:13:50;;;;;;;10.65;8.45;;;1.00;99.90;;;0.20;100.00;100982.81;5005765;28;20053;-76
2022/04/04 01:16:18;;;;;;;10.05;8.88;;;2.90;99.90;;;0.20;100.00;100975.06;5021146;28;20136;-76
2022/04/04 01:18:45;;;;;;;11.70;8.90;;;1.00;99.90;;;0.13;100.00;100971.41;5007908;28;20045;-77
2022/04/04 01:21:13;;;;;;;10.93;8.93;;;1.20;99.90;;;0.16;100.00;100975.81;5007190;28;20606;-76
2022/04/04 01:23:43;;;;;;;11.07;7.43;;;1.10;99.90;;;0.14;100.00;100969.72;5004348;28;20125;-75
2022/04/04 01:26:13;;;;;;;8.98;7.70;;;1.00;99.90;;;0.12;100.00;100964.50;5005785;28;20605;-76
2022/04/04 01:28:40;;;;;;;10.43;8.38;;;1.00;99.90;;;0.15;100.00;100968.88;5005043;28;20388;-75
2022/04/04 01:31:08;;;;;;;9.82;7.97;;;0.90;99.90;;;0.07;100.00;100967.78;5005581;28;20538;-77
2022/04/04 01:33:37;;;;;;;8.98;7.57;;;0.90;99.90;;;0.12;100.00;100973.97;4990420;28;20050;-76
2022/04/04 01:36:05;;;;;;;9.88;7.38;;;0.90;99.90;;;0.06;100.00;100966.03;5007615;28;20045;-75
2022/04/04 01:38:32;;;;;;;11.98;7.50;;;0.90;99.90;;;0.07;100.00;100965.19;5023730;28;20404;-75
2022/04/04 01:40:59;;;;;;;9.00;7.32;;;1.00;99.90;;;0.08;100.00;100961.75;5002803;28;20038;-75
2022/04/04 01:43:27;;;;;;;10.60;8.02;;;0.90;99.90;;;0.01;100.00;100962.44;5004456;28;20096;-76
2022/04/04 01:48:40;;;;;;;10.75;8.27;;;0.80;99.90;;;0.02;100.00;100959.91;5008159;28;20046;-77
2022/04/04 01:51:07;;;;;;;9.20;7.40;;;0.90;99.90;;;-0.02;100.00;100964.09;5008742;28;20068;-75
2022/04/04 01:53:34;;;;;;;9.80;7.45;;;1.00;99.90;;;-0.05;100.00;100953.69;5005339;28;20490;-75
2022/04/04 01:56:03;;;;;;;9.73;7.82;;;0.70;99.90;;;-0.01;100.00;100957.22;5008464;28;20045;-76
2022/04/04 01:58:32;;;;;;;8.50;7.15;;;0.80;99.90;;;-0.06;100.00;100946.75;4991688;28;20144;-76
2022/04/04 02:01:04;;;;;;;13.57;8.23;;;0.90;99.90;;;-0.03;100.00;100946.84;4990414;28;20116;-75
2022/04/04 02:03:31;;;;;;;10.15;8.02;;;1.00;99.90;;;-0.05;100.00;100942.44;5007497;28;20509;-75
2022/04/04 02:06:00;;;;;;;12.75;8.95;;;0.80;99.90;;;-0.07;100.00;100937.25;5028579;28;20037;-76
2022/04/04 02:08:27;;;;;;;8.40;7.30;;;0.90;99.90;;;-0.08;100.00;100932.91;5010828;28;20096;-75
2022/04/04 02:10:55;;;;;;;9.07;7.07;;;0.90;99.90;;;-0.14;100.00;100937.88;4992644;28;20116;-75
2022/04/04 02:13:25;;;;;;;12.00;8.52;;;1.00;99.90;;;-0.12;100.00;100932.75;5008732;28;20072;-76
2022/04/04 02:16:00;;;;;;;9.45;7.50;;;1.00;99.90;;;-0.13;100.00;100943.94;5009024;28;20053;-77
2022/04/04 02:18:29;;;;;;;9.68;6.85;;;0.80;99.90;;;-0.09;100.00;100940.59;4993613;28;20391;-77
2022/04/04 02:20:57;;;;;;;8.85;6.55;;;0.90;99.90;;;-0.15;100.00;100944.78;5010580;28;20061;-75
2022/04/04 02:23:24;;;;;;;12.07;7.50;;;0.60;99.90;;;-0.13;100.00;100938.75;5014352;28;20054;-76
2022/04/04 02:25:55;;;;;;;11.32;7.65;;;0.90;99.90;;;-0.15;100.00;100942.19;5018994;28;20385;-75
2022/04/04 02:28:24;;;;;;;8.77;7.43;;;0.80;99.90;;;-0.15;100.00;100936.13;4997129;28;20045;-75
2022/04/04 02:30:51;;;;;;;10.68;8.30;;;0.80;99.90;;;-0.19;100.00;100944.63;5010693;28;20058;-75
2022/04/04 02:33:21;;;;;;;10.52;7.55;;;0.90;99.90;;;-0.19;100.00;100942.91;5009400;28;20112;-76
2022/04/04 02:35:50;;;;;;;9.45;7.75;;;0.80;99.90;;;-0.19;100.00;100942.06;5009236;28;20562;-75
2022/04/04 02:38:23;;;;;;;9.00;7.30;;;0.80;99.90;;;-0.19;100.00;100936.88;5008490;28;20049;-75
2022/04/04 02:40:52;;;;;;;10.75;7.95;;;0.60;99.90;;;-0.22;100.00;100937.66;5007850;28;20041;-74
2022/04/04 02:43:20;;;;;;;9.80;7.43;;;0.70;99.90;;;-0.20;100.00;100935.13;5008132;28;20046;-76
2022/04/04 02:45:48;;;;;;;10.18;7.47;;;0.80;99.90;;;-0.22;100.00;100935.06;4977330;28;20137;-75
2022/04/04 02:48:15;;;;;;;11.70;7.63;;;0.70;99.90;;;-0.21;100.00;100933.38;4993179;28;20081;-76
2022/04/04 02:50:44;;;;;;;11.30;7.63;;;0.70;99.90;;;-0.26;100.00;100937.50;5009942;28;20133;-76
2022/04/04 02:53:12;;;;;;;7.78;6.80;;;0.70;99.90;;;-0.26;100.00;100934.91;5007867;28;20491;-77
2022/04/04 02:58:25;;;;;;;10.35;7.40;;;0.70;99.90;;;-0.30;100.00;100937.44;5008826;28;20100;-76
2022/04/04 03:00:52;;;;;;;8.35;6.90;;;0.60;99.90;;;-0.34;100.00;100937.28;5013143;28;20050;-76
2022/04/04 03:03:19;;;;;;;10.18;7.05;;;0.80;99.90;;;-0.33;100.00;100939.03;5005280;28;20133;-77
2022/04/04 03:05:47;;;;;;;7.90;7.07;;;0.60;99.90;;;-0.36;100.00;100933.78;5005050;28;20046;-76
2022/04/04 03:08:14;;;;;;;9.48;7.53;;;0.50;99.90;;;-0.37;100.00;100932.91;5005209;28;20042;-77
2022/04/04 03:10:41;;;;;;;9.45;8.43;;;0.70;99.90;;;-0.38;100.00;100938.94;5008858;28;20046;-76
2022/04/04 03:13:08;;;;;;;8.25;6.80;;;2.30;99.90;;;-0.36;100.00;100931.19;5003991;28;20065;-75
2022/04/04 03:15:36;;;;;;;11.27;6.97;;;0.60;99.90;;;-0.34;100.00;100927.81;5004372;28;20054;-75
2022/04/04 03:18:05;;;;;;;9.00;7.07;;;0.60;99.90;;;-0.35;100.00;100925.19;5006139;28;20065;-77
2022/04/04 03:20:33;;;;;;;7.90;6.93;;;0.60;99.90;;;-0.39;100.00;100925.94;5006551;28;20506;-76
2022/04/04 03:23:01;;;;;;;9.82;6.10;;;2.20;99.90;;;-0.36;100.00;100929.50;5004877;28;20100;-75
2022/04/04 03:25:29;;;;;;;10.35;6.90;;;0.50;99.90;;;-0.36;100.00;100929.50;5005603;28;20089;-76
2022/04/04 03:27:59;;;;;;;9.30;7.35;;;0.60;99.90;;;-0.37;100.00;100930.34;5006017;28;20051;-75
2022/04/04 03:30:28;;;;;;;10.02;6.78;;;0.50;99.90;;;-0.43;100.00;100925.84;5007495;28;20062;-76
2022/04/04 03:33:12;;;;;;;9.13;8.02;;;0.40;99.90;;;-0.39;100.00;100920.75;5006488;28;20045;-76
2022/04/04 03:35:39;;;;;;;9.05;6.43;;;0.40;99.90;;;-0.45;100.00;100912.00;5006661;28;20049;-76
2022/04/04 03:38:10;;;;;;;8.93;6.88;;;0.30;99.90;;;-0.46;100.00;100923.19;5006053;28;20053;-75
2022/04/04 03:40:38;;;;;;;11.00;8.25;;;1.50;99.90;;;-0.46;100.00;100922.28;5007311;28;20050;-77
2022/04/04 03:43:05;;;;;;;12.23;8.05;;;0.70;99.90;;;-0.44;100.00;100913.75;5021408;28;20041;-75
2022/04/04 03:45:32;;;;;;;9.32;6.75;;;0.50;99.90;;;-0.46;100.00;100904.19;4990423;28;20062;-75
2022/04/04 03:47:59;;;;;;;10.55;7.53;;;0.50;99.90;;;-0.53;100.00;100918.63;5005973;28;20410;-75
2022/04/04 03:50:29;;;;;;;8.80;7.38;;;0.50;99.90;;;-0.54;100.00;100914.31;5010960;28;20050;-75
2022/04/04 03:52:57;;;;;;;9.33;7.27;;;0.50;99.90;;;-0.55;100.00;100915.13;5005918;28;20053;-75
2022/04/04 03:55:29;;;;;;;9.02;7.85;;;0.70;99.90;;;-0.52;100.00;100914.34;5005895;28;20346;-75
2022/04/04 03:57:56;;;;;;;10.43;7.60;;;0.30;99.90;;;-0.54;100.00;100913.44;5006898;28;20061;-77
2022/04/04 04:00:24;;;;;;;10.73;7.13;;;0.30;99.90;;;-0.57;100.00;100911.63;4990174;28;20170;-75
2022/04/04 04:02:52;;;;;;;9.07;7.20;;;3.10;99.90;;;-0.63;100.00;100899.38;5005885;28;20566;-75
2022/04/04 04:05:20;;;;;;;12.45;8.20;;;0.40;99.90;;;-0.57;100.00;100903.88;4998552;28;20034;-76
2022/04/04 04:07:48;;;;;;;9.48;7.80;;;0.40;99.90;;;-0.59;100.00;100898.63;4987969;28;20598;-76
2022/04/04 04:10:15;;;;;;;9.55;8.55;;;0.40;99.90;;;-0.59;100.00;100890.03;4987071;28;20049;-75
2022/04/04 04:12:43;;;;;;;11.52;8.10;;;1.00;99.90;;;-0.60;100.00;100899.47;5009834;28;20407;-77
2022/04/04 04:15:17;;;;;;;8.65;7.25;;;0.30;99.90;;;-0.64;100.00;100897.63;5007525;28;20046;-77
2022/04/04 04:17:44;;;;;;;13.80;9.65;;;0.30;99.90;;;-0.62;100.00;100895.97;5007896;28;20053;-75
2022/04/04 04:20:21;;;;;;;9.75;8.40;;;0.30;99.90;;;-0.61;100.00;100884.81;4990569;28;20404;-78
2022/04/04 04:22:58;;;;;;;9.68;7.68;;;0.50;99.90;;;-0.58;100.00;100891.78;5006634;28;20057;-77
2022/04/04 04:25:29;;;;;;;10.02;8.57;;;0.60;99.90;;;-0.59;100.00;100885.72;4991289;28;20125;-73
2022/04/04 04:28:02;;;;;;;15.32;12.23;;;0.30;99.90;;;-0.59;100.00;100883.13;5006212;28;20052;-74
2022/04/04 04:30:30;;;;;;;12.35;9.73;;;0.20;99.90;;;-0.60;100.00;100883.97;4990584;28;20709;-75
2022/04/04 04:32:58;;;;;;;12.18;8.63;;;2.70;99.90;;;-0.64;100.00;100884.72;5006381;28;20045;-74
2022/04/04 04:35:25;;;;;;;11.95;10.05;;;0.50;99.90;;;-0.63;100.00;100877.81;5006756;28;20057;-73
2022/04/04 04:37:52;;;;;;;29.30;26.75;;;0.40;99.90;;;-0.65;100.00;100880.38;5005576;28;20049;-75
2022/04/04 04:40:20;;;;;;;54.67;49.35;;;0.50;99.90;;;-0.66;100.00;100882.91;5010611;28;20045;-75
2022/04/04 04:42:56;;;;;;;29.67;26.85;;;1.30;99.90;;;-0.75;100.00;100876.63;4995035;28;20050;-74
2022/04/04 04:45:23;;;;;;;14.75;13.13;;;0.50;99.90;;;-0.76;100.00;100871.41;5003059;28;20754;-75
2022/04/04 04:47:54;;;;;;;18.40;16.50;;;0.30;99.90;;;-0.83;100.00;100872.06;4989474;28;20054;-75
2022/04/04 04:50:22;;;;;;;;;;;0.50;99.90;;;-0.79;100.00;100877.34;5006191;28;20096;-74
2022/04/04 04:52:49;;;;;;;16.83;15.05;;;0.10;99.90;;;-0.87;100.00;100879.69;5007206;28;20910;-75
2022/04/04 04:55:21;;;;;;;10.20;8.95;;;0.10;99.90;;;-0.86;100.00;100878.91;5007090;28;20060;-74
2022/04/04 04:57:50;;;;;;;16.67;15.00;;;0.30;99.90;;;-0.87;100.00;100882.28;5013769;28;20045;-74
2022/04/04 05:00:23;;;;;;;14.43;12.45;;;0.40;99.90;;;-0.85;100.00;100877.19;5027864;28;20042;-76
2022/04/04 05:05:39;;;;;;;13.98;10.65;;;2.30;99.90;;;-0.92;100.00;100883.00;5012447;28;20056;-76
2022/04/04 05:08:07;;;;;;;11.88;9.02;;;-0.10;99.90;;;-0.91;100.00;100879.59;4992736;28;20152;-76
2022/04/04 05:10:35;;;;;;;13.98;9.60;;;0.10;99.90;;;-0.93;100.00;100876.94;4991891;28;20048;-77
2022/04/04 05:13:02;;;;;;;13.55;9.35;;;0.10;99.90;;;-0.99;100.00;100884.50;5007566;28;20048;-76
2022/04/04 05:15:29;;;;;;;12.95;10.27;;;0.10;99.90;;;-1.03;100.00;100880.94;5008748;28;20042;-77
2022/04/04 05:17:57;;;;;;;12.63;9.60;;;-0.10;99.90;;;-0.95;100.00;100886.34;5006860;28;20048;-74
2022/04/04 05:20:24;;;;;;;13.30;11.82;;;0.10;99.90;;;-1.00;100.00;100881.03;5007282;28;20046;-76
2022/04/04 05:22:52;;;;;;;12.70;8.88;;;-0.10;99.90;;;-0.95;100.00;100880.28;4990612;28;20050;-77
2022/04/04 05:25:19;;;;;;;13.13;9.50;;;-0.30;99.90;;;-0.91;100.00;100882.16;5007072;28;20038;-76
2022/04/04 05:27:46;;;;;;;12.73;9.23;;;0.30;99.90;;;-0.92;100.00;100880.41;5007020;28;20052;-75
2022/04/04 05:30:13;;;;;;;15.00;10.32;;;0.90;99.90;;;-0.88;100.00;100877.94;5007063;28;20491;-76
2022/04/04 05:32:40;;;;;;;13.40;12.05;;;0.30;99.90;;;-0.88;100.00;100874.50;5005297;28;20403;-74
2022/04/04 05:35:07;;;;;;;15.30;13.02;;;0.10;99.90;;;-0.83;100.00;100874.66;5004594;28;20058;-76
2022/04/04 05:37:35;;;;;;;15.38;11.02;;;0.00;99.90;;;-0.82;100.00;100882.44;5008546;28;20053;-75
2022/04/04 05:40:04;;;;;;;16.77;10.90;;;0.40;99.90;;;-0.76;100.00;100867.13;4996156;28;20037;-75
2022/04/04 05:42:31;;;;;;;13.05;11.18;;;0.30;99.90;;;-0.80;100.00;100867.84;5009114;28;20495;-76
2022/04/04 05:44:58;;;;;;;13.23;9.80;;;0.30;99.90;;;-0.74;100.00;100868.06;5015374;28;20121;-77
2022/04/04 05:47:26;;;;;;;12.13;10.27;;;0.10;99.90;;;-0.70;100.00;100875.91;5010918;28;20060;-75
2022/04/04 05:49:53;;;;;;;16.33;11.23;;;0.20;99.90;;;-0.69;100.00;100875.06;5013217;28;20046;-76
2022/04/04 05:52:25;;;;;;;13.20;10.27;;;1.30;99.90;;;-0.61;100.00;100865.84;5018857;28;20045;-76
2022/04/04 05:54:59;;;;;;;14.73;12.35;;;0.50;99.90;;;-0.59;100.00;100869.34;5011130;28;20046;-76
2022/04/04 05:57:35;;;;;;;11.10;10.00;;;0.40;99.90;;;-0.56;100.00;100869.44;5010925;28;20050;-75
2022/04/04 06:00:10;;;;;;;21.20;15.43;;;0.50;99.90;;;-0.53;100.00;100872.09;5008901;28;20046;-76
2022/04/04 06:02:42;;;;;;;15.35;12.57;;;0.40;99.90;;;-0.51;100.00;100873.03;5010270;28;20198;-76
2022/04/04 06:05:11;;;;;;;16.67;11.82;;;0.60;99.90;;;-0.45;100.00;100870.63;5009187;28;20445;-75
2022/04/04 06:07:40;;;;;;;14.75;11.68;;;0.40;99.90;;;-0.44;100.00;100869.81;5009658;28;20050;-76
2022/04/04 06:10:10;;;;;;;15.10;10.85;;;0.60;99.90;;;-0.38;100.00;100869.09;5009191;28;20060;-76
2022/04/04 06:12:38;;;;;;;61.15;34.03;;;0.40;99.90;;;-0.34;100.00;100877.81;4997154;28;20080;-77
2022/04/04 06:15:07;;;;;;;87.68;46.75;;;0.70;99.90;;;-0.25;100.00;100869.44;4988793;28;20050;-76
2022/04/04 06:17:35;;;;;;;136.13;68.22;;;0.70;99.90;;;-0.12;100.00;100883.59;5005242;28;20048;-76
2022/04/04 06:20:03;;;;;;;26.67;16.38;;;0.70;99.90;;;-0.07;100.00;100882.91;4988678;28;20057;-76
2022/04/04 06:22:38;;;;;;;18.83;12.73;;;0.70;99.90;;;-0.04;100.00;100879.50;5004964;28;20054;-76
2022/04/04 06:25:08;;;;;;;18.17;12.40;;;0.80;99.90;;;0.05;100.00;100884.06;4990881;28;20158;-76
2022/04/04 06:27:36;;;;;;;18.13;12.77;;;1.00;99.90;;;0.08;100.00;100882.44;5009707;28;20042;-76
2022/04/04 06:30:05;;;;;;;13.63;11.15;;;0.90;99.90;;;0.18;100.00;100880.13;4994196;28;20269;-76
2022/04/04 06:32:33;;;;;;;12.88;9.75;;;1.10;99.90;;;0.20;100.00;100884.47;5009118;28;20069;-77
2022/04/04 06:35:00;;;;;;;13.82;10.15;;;1.10;99.90;;;0.28;100.00;100882.97;5025150;28;20120;-76
2022/04/04 06:37:27;;;;;;;14.45;10.25;;;1.20;99.90;;;0.35;100.00;100876.25;5007977;28;20137;-76
2022/04/04 06:40:14;;;;;;;15.95;11.10;;;1.10;99.90;;;0.40;100.00;100882.41;5008599;28;20407;-76
2022/04/04 06:42:43;;;;;;;18.65;11.35;;;1.40;99.90;;;0.41;100.00;100884.16;4992583;28;20442;-77
2022/04/04 06:45:12;;;;;;;15.10;10.20;;;1.30;99.90;;;0.51;100.00;100874.06;5009312;28;20075;-76
2022/04/04 06:47:39;;;;;;;14.70;11.82;;;1.30;99.90;;;0.56;100.00;100875.03;5009197;28;20050;-76
2022/04/04 06:50:07;;;;;;;16.83;10.65;;;1.30;99.90;;;0.64;100.00;100870.94;5008128;28;20053;-77
2022/04/04 06:52:34;;;;;;;13.77;10.85;;;1.50;99.90;;;0.69;100.00;100860.66;5024498;28;20092;-75
2022/04/04 06:55:02;;;;;;;15.02;11.60;;;2.20;99.90;;;0.76;100.00;100853.94;5008493;28;20037;-76
2022/04/04 06:57:29;;;;;;;15.27;10.38;;;3.60;99.90;;;0.87;100.00;100856.81;5009032;28;20042;-76
2022/04/04 07:00:00;;;;;;;14.52;11.13;;;1.60;99.90;;;0.96;100.00;100851.81;5007765;28;20085;-76
2022/04/04 07:02:27;;;;;;;16.33;12.77;;;1.60;99.90;;;1.06;100.00;100858.09;5007905;28;20049;-76
2022/04/04 07:04:55;;;;;;;12.35;10.40;;;3.10;99.90;;;1.19;100.00;100854.94;5009317;28;20042;-77
2022/04/04 07:07:22;;;;;;;12.52;10.20;;;1.80;99.90;;;1.27;100.00;100849.91;4994881;28;20631;-76
2022/04/04 07:09:49;;;;;;;13.32;9.52;;;4.00;99.90;;;1.38;100.00;100842.38;5010524;28;20133;-77
2022/04/04 07:12:16;;;;;;;15.75;10.30;;;2.30;99.90;;;1.45;100.00;100852.03;4992906;28;20046;-76
2022/04/04 07:14:43;;;;;;;11.68;9.93;;;2.30;99.90;;;1.54;100.00;100846.16;5023638;28;20038;-77
2022/04/04 07:17:11;;;;;;;12.73;9.95;;;2.10;99.90;;;1.52;100.00;100845.28;5009442;28;20460;-78
2022/04/04 07:19:38;;;;;;;13.25;9.88;;;2.40;99.90;;;1.79;100.00;100844.06;4993238;28;20076;-76
2022/04/04 07:22:05;;;;;;;12.90;9.85;;;2.60;99.90;;;1.89;100.00;100846.00;5007565;28;20050;-76
2022/04/04 07:24:32;;;;;;;11.55;8.60;;;2.50;99.60;;;1.94;100.00;100841.75;5006715;28;20125;-77
2022/04/04 07:27:20;;;;;;;14.00;9.82;;;4.60;99.80;;;2.05;100.00;100839.38;4994198;28;20087;-77
2022/04/04 07:29:47;;;;;;;10.73;9.52;;;3.60;99.30;;;2.19;100.00;100849.16;5013169;28;20061;-78
2022/04/04 07:32:14;;;;;;;13.48;9.23;;;2.60;99.10;;;2.16;100.00;100833.50;5015098;28;21042;-77
2022/04/04 07:34:41;;;;;;;13.20;10.95;;;3.00;98.90;;;2.26;100.00;100833.72;4988847;28;20077;-78
2022/04/04 07:37:08;;;;;;;11.82;9.55;;;4.00;99.10;;;2.22;100.00;100833.63;5011642;28;20080;-78
2022/04/04 07:39:35;;;;;;;12.38;9.43;;;3.00;98.40;;;2.23;100.00;100837.97;5031963;28;20092;-78
2022/04/04 07:42:03;;;;;;;10.18;8.70;;;2.90;98.20;;;2.29;100.00;100829.41;5021954;28;20038;-78
2022/04/04 07:44:30;;;;;;;12.27;10.43;;;3.20;98.30;;;2.36;100.00;100831.25;5013609;28;20041;-78
2022/04/04 07:46:57;;;;;;;13.05;9.70;;;3.00;98.40;;;2.44;100.00;100829.69;4992643;28;20119;-77
2022/04/04 07:49:24;;;;;;;12.10;8.80;;;3.20;98.40;;;2.52;100.00;100817.69;5010547;28;20046;-78
2022/04/04 07:51:52;;;;;;;12.45;9.70;;;3.10;98.10;;;2.59;100.00;100810.84;4993989;28;20049;-78
2022/04/04 07:54:23;;;;;;;11.57;9.15;;;3.40;98.10;;;2.77;100.00;100817.19;4994524;28;20454;-79
2022/04/04 07:56:53;;;;;;;14.52;9.30;;;5.30;98.00;;;2.84;100.00;100813.84;4994731;28;20054;-77
2022/04/04 07:59:20;;;;;;;15.68;8.95;;;6.10;98.20;;;2.92;100.00;100808.75;4994890;28;20140;-78
2022/04/04 08:01:47;;;;;;;14.02;9.60;;;3.70;97.20;;;3.02;100.00;100805.44;5010275;28;20042;-78
2022/04/04 08:04:15;;;;;;;11.45;8.55;;;3.60;97.00;;;3.01;100.00;100805.41;4995463;28;20049;-78
2022/04/04 08:06:42;;;;;;;12.23;9.55;;;3.70;96.50;;;3.12;100.00;100803.81;5010865;28;20061;-78
2022/04/04 08:09:09;;;;;;;11.82;8.82;;;4.80;96.70;;;3.16;100.00;100795.22;5008703;28;20046;-77
2022/04/04 08:11:36;;;;;;;14.05;8.10;;;5.40;96.50;;;3.18;100.00;100795.22;4976824;28;20898;-78
2022/04/04 08:14:08;;;;;;;11.10;8.43;;;6.30;95.40;;;3.26;93.65;100807.47;4992826;28;20161;-78
2022/04/04 08:16:36;;;;;;;10.13;7.60;;;6.00;94.70;;;3.21;90.61;100805.69;5025711;28;20475;-77
2022/04/04 08:19:03;;;;;;;10.07;7.65;;;5.60;94.20;;;3.33;94.27;100781.56;5013520;28;20120;-78
2022/04/04 08:21:31;;;;;;;9.68;7.70;;;4.00;94.20;;;3.37;93.36;100789.44;5015031;28;20041;-78
2022/04/04 08:23:58;;;;;;;9.13;7.38;;;3.90;94.10;;;3.52;92.19;100786.13;5014749;28;20053;-79
2022/04/04 08:26:26;;;;;;;14.10;8.05;;;6.80;95.20;;;3.49;91.77;100782.63;5015126;28;20054;-78
2022/04/04 08:28:53;;;;;;;10.05;7.40;;;6.40;94.60;;;3.63;90.65;100775.84;5014971;28;20477;-78
2022/04/04 08:31:20;;;;;;;10.23;8.32;;;4.20;93.70;;;3.76;90.69;100782.06;5015301;28;20072;-78
2022/04/04 08:33:48;;;;;;;10.35;7.43;;;4.40;93.80;;;3.85;89.85;100781.28;5031181;28;20046;-78
2022/04/04 08:36:16;;;;;;;8.57;7.68;;;4.50;93.60;;;3.95;89.29;100764.88;5014190;28;20035;-78
2022/04/04 08:38:43;;;;;;;11.95;8.10;;;4.40;93.50;;;4.00;84.89;100785.78;5015233;28;20503;-78
2022/04/04 08:41:11;;;;;;;8.85;7.55;;;6.40;93.50;;;3.97;84.16;100772.72;5001110;28;20052;-78
2022/04/04 08:43:44;;;;;;;8.90;7.18;;;5.10;92.90;;;4.07;84.08;100768.47;5017584;28;20046;-78
2022/04/04 08:46:11;;;;;;;12.40;8.45;;;4.70;92.80;;;4.07;82.69;100761.56;5017900;28;20081;-79
2022/04/04 08:48:39;;;;;;;9.90;7.53;;;6.30;93.10;;;4.10;79.81;100755.47;5000687;28;20050;-78
2022/04/04 08:51:08;;;;;;;8.82;7.03;;;4.50;92.20;;;4.15;75.43;100764.22;5015662;28;20064;-78
2022/04/04 08:53:37;;;;;;;12.55;7.57;;;4.80;93.10;;;4.18;75.06;100763.34;5016045;28;20526;-79
2022/04/04 08:56:07;;;;;;;9.18;7.60;;;5.00;91.60;;;4.32;75.29;100768.69;5013772;28;20711;-79
2022/04/04 08:58:34;;;;;;;9.57;6.53;;;4.90;91.60;;;4.35;73.54;100769.56;4996736;28;20046;-78
2022/04/04 09:01:01;;;;;;;12.23;7.60;;;4.90;91.40;;;4.37;72.02;100743.53;4996551;28;20056;-78
2022/04/04 09:03:32;;;;;;;12.82;6.68;;;5.00;90.90;;;4.48;71.27;100741.91;4994601;28;20245;-79
2022/04/04 09:06:03;;;;;;;11.25;7.68;;;5.10;91.00;;;4.64;70.58;100739.41;4994264;28;20042;-79
2022/04/04 09:08:44;;;;;;;10.02;7.47;;;5.20;90.90;;;4.64;68.70;100747.22;4994653;28;20292;-79
2022/04/04 09:11:13;;;;;;;10.73;7.15;;;6.50;90.60;;;4.79;67.00;100749.91;5011963;28;20046;-78
2022/04/04 09:13:42;;;;;;;12.07;7.23;;;5.20;89.80;;;4.91;66.34;100733.47;4999567;28;20709;-78
2022/04/04 09:16:10;;;;;;;8.75;7.18;;;5.20;89.50;;;4.93;64.71;100733.47;5028051;28;20475;-78
2022/04/04 09:18:37;;;;;;;8.75;7.35;;;6.90;89.30;;;4.95;65.09;100732.59;5021301;28;20073;-77
2022/04/04 09:21:17;;;;;;;11.25;7.68;;;5.60;88.50;;;5.15;64.98;100721.41;5017484;28;20042;-78
2022/04/04 09:23:48;;;;;;;8.60;7.25;;;5.70;88.70;;;5.25;64.06;100723.19;5016035;28;20046;-80
2022/04/04 09:26:44;;;;;;;10.45;8.32;;;5.70;88.10;;;5.37;63.12;100724.09;5033436;28;20152;-81
2022/04/04 09:29:21;;;;;;;9.50;6.85;;;5.90;87.60;;;5.41;62.18;100709.31;5016810;28;20108;-79
2022/04/04 09:32:09;;;;;;;10.93;7.53;;;5.90;87.10;;;5.48;61.43;100703.25;5017186;28;20046;-79
2022/04/04 09:35:10;;;;;;;9.18;7.47;;;6.00;86.20;;;5.55;59.20;100707.63;4964112;28;20073;-79
2022/04/04 09:37:39;;;;;;;9.30;7.55;;;6.10;84.80;;;5.49;57.98;100690.19;4989236;28;20112;-78
2022/04/04 09:40:16;;;;;;;8.73;7.25;;;8.50;84.70;;;5.57;57.58;100685.00;5018912;28;20777;-79
2022/04/04 09:42:58;;;;;;;8.15;7.30;;;6.30;83.00;;;5.61;55.71;100678.91;5000680;28;20057;-81
2022/04/04 09:45:31;;;;;;;12.10;6.70;;;6.00;80.80;;;5.58;54.83;100664.97;4988993;28;20060;-80
2022/04/04 09:48:07;;;;;;;8.82;7.30;;;6.80;80.90;;;5.72;54.35;100655.41;5007697;28;20053;-79
2022/04/04 09:50:38;;;;;;;9.35;7.95;;;6.20;79.70;;;5.84;54.99;100654.53;5016822;28;20055;-80
2022/04/04 09:53:21;;;;;;;10.75;6.60;;;8.90;81.20;;;6.03;53.90;100641.53;5022480;28;20065;-79
2022/04/04 09:55:56;;;;;;;11.77;7.53;;;6.50;79.20;;;6.13;52.59;100640.63;5021767;28;20391;-79
2022/04/04 09:58:30;;;;;;;10.70;8.48;;;8.50;78.80;;;6.18;51.41;100635.41;5020082;28;20049;-79
2022/04/04 10:00:59;;;;;;;9.55;7.53;;;7.00;76.00;;;6.17;50.65;100646.72;5006893;28;20050;-80
2022/04/04 10:03:30;;;;;;;9.43;7.32;;;7.90;74.80;;;6.27;51.83;100663.25;5018571;28;20053;-78
2022/04/04 10:06:09;;;;;;;8.13;7.32;;;6.80;75.80;;;6.22;50.14;100629.28;4998653;28;20060;-78
2022/04/04 10:08:38;;;;;;;10.20;7.20;;;9.10;74.50;;;6.22;52.33;100634.53;5016145;28;20562;-79
2022/04/04 10:11:10;;;;;;;8.60;6.72;;;8.00;76.70;;;6.32;51.61;100630.13;4998823;28;20117;-80
2022/04/04 10:13:37;;;;;;;10.88;8.23;;;6.90;74.80;;;6.45;51.30;100637.09;5014330;28;20100;-79
2022/04/04 10:16:05;;;;;;;12.00;8.30;;;6.90;73.90;;;6.47;51.20;100619.66;5016138;28;20046;-79
2022/04/04 10:18:36;;;;;;;9.63;7.40;;;7.00;74.10;;;6.50;51.67;100606.59;4997065;28;20487;-77
2022/04/04 10:21:04;;;;;;;10.90;7.43;;;7.10;74.10;;;6.58;51.38;100609.19;5015484;28;20045;-78
2022/04/04 10:23:33;;;;;;;8.68;7.10;;;7.10;73.80;;;6.72;51.30;100593.41;5011799;28;20046;-78
2022/04/04 10:26:05;;;;;;;8.18;6.97;;;9.00;74.70;;;6.74;50.46;100593.44;5010369;28;20046;-79
2022/04/04 10:28:44;;;;;;;8.65;7.50;;;8.40;73.30;;;6.94;49.67;100582.84;4994616;28;20120;-79